Terminal Aerodrome Forecast
Issued by NWS New Orleans/Baton Rouge, LA

Current Version | Previous Version | Text Only | Print | Product List | Glossary On
Versions: 1 2 3 4 5 6 7 8 9 10 11 12 13 14 15 16 17
000
FTUS44 KLIX 222330 AAC
TAFBTR
TAF AMD
KBTR 222330Z 2300/2324 17011KT P6SM VCSH SCT035 BKN045
     FM230900 17012KT P6SM BKN040
     FM231200 17011KT P6SM VCSH BKN035=

USA.gov is the U.S. government's official web portal to all federal, state and local government web resources and services.